createdAt,value
2019-05-15T00:02:11.127Z,58.84
2019-05-15T00:04:46.329Z,59.23
2019-05-15T00:07:18.655Z,59.34
2019-05-15T00:09:52.716Z,59.43
2019-05-15T00:12:28.398Z,59.20
2019-05-15T00:15:00.691Z,58.56
2019-05-15T00:17:34.110Z,58.48
2019-05-15T00:20:09.639Z,58.56
2019-05-15T00:22:41.078Z,58.34
2019-05-15T00:25:32.786Z,58.76
2019-05-15T00:28:18.528Z,59.87
2019-05-15T00:30:52.725Z,61.19
2019-05-15T00:33:25.979Z,62.22
2019-05-15T00:39:39.751Z,62.76
2019-05-15T00:42:11.613Z,62.59
2019-05-15T00:44:43.509Z,62.61
2019-05-15T00:47:18.240Z,62.54
2019-05-15T00:50:39.703Z,62.61
2019-05-15T00:53:14.970Z,61.83
2019-05-15T00:55:48.584Z,61.49
2019-05-15T00:59:26.253Z,60.78
2019-05-15T01:02:32.250Z,59.91
2019-05-15T01:05:05.130Z,59.88
2019-05-15T01:07:38.930Z,59.49
2019-05-15T01:10:10.759Z,60.05
2019-05-15T01:12:48.527Z,60.28
2019-05-15T01:15:25.193Z,60.09
2019-05-15T01:17:58.304Z,60.33
2019-05-15T01:20:31.977Z,60.73
2019-05-15T01:23:03.778Z,61.35
2019-05-15T01:25:35.477Z,61.93
2019-05-15T01:28:28.926Z,62.53
2019-05-15T01:30:59.174Z,63.15
2019-05-15T01:33:34.442Z,63.74
2019-05-15T01:36:08.551Z,64.41
2019-05-15T01:39:31.835Z,64.96
2019-05-15T01:41:40.106Z,65.17
2019-05-15T01:44:14.190Z,65.00
2019-05-15T01:46:55.139Z,64.96
2019-05-15T01:49:28.050Z,64.82
2019-05-15T01:52:22.971Z,64.46
2019-05-15T01:55:08.828Z,64.14
2019-05-15T01:57:50.194Z,63.68
2019-05-15T02:00:34.194Z,63.45
2019-05-15T02:03:10.790Z,62.99
2019-05-15T02:06:29.034Z,62.98
2019-05-15T02:08:41.896Z,62.99
2019-05-15T02:11:38.272Z,62.81
2019-05-15T02:16:39.284Z,64.03
2019-05-15T02:19:19.359Z,64.44
2019-05-15T02:21:51.526Z,64.24
2019-05-15T02:24:23.735Z,63.95
2019-05-15T02:27:18.436Z,63.99
2019-05-15T02:29:53.120Z,63.90
2019-05-15T02:32:30.166Z,63.94
2019-05-15T02:37:48.872Z,65.41
2019-05-15T02:40:43.019Z,65.47
2019-05-15T02:43:44.083Z,64.96
2019-05-15T02:49:32.424Z,65.25
2019-05-15T02:56:01.326Z,65.28
2019-05-15T02:58:33.082Z,65.58
2019-05-15T03:01:04.807Z,65.64
2019-05-15T03:03:38.711Z,65.59
2019-05-15T03:06:10.395Z,65.84
2019-05-15T03:08:42.179Z,65.66
2019-05-15T03:11:13.917Z,65.82
2019-05-15T03:13:45.677Z,65.57
2019-05-15T03:16:19.531Z,65.31
2019-05-15T03:18:55.169Z,66.05
2019-05-15T03:21:24.425Z,66.91
2019-05-15T03:23:59.592Z,67.28
2019-05-15T03:26:31.398Z,67.34
2019-05-15T03:29:05.724Z,66.80
2019-05-15T03:31:52.786Z,67.44
2019-05-15T03:34:21.545Z,67.36
2019-05-15T03:36:53.027Z,67.33
2019-05-15T03:39:22.149Z,67.10
2019-05-15T03:41:54.287Z,67.19
2019-05-15T03:44:28.709Z,66.88
2019-05-15T03:47:00.854Z,67.26
2019-05-15T03:49:32.565Z,67.73
2019-05-15T03:52:04.342Z,68.60
2019-05-15T03:54:38.980Z,68.65
2019-05-15T03:57:09.897Z,67.82
2019-05-15T03:59:43.639Z,68.40
2019-05-15T04:02:15.511Z,67.98
2019-05-15T04:04:50.183Z,68.11
2019-05-15T04:07:20.789Z,68.05
2019-05-15T04:09:53.869Z,68.16
2019-05-15T04:12:28.782Z,67.89
2019-05-15T04:14:59.694Z,68.08
2019-05-15T04:17:31.990Z,67.58
2019-05-15T04:20:03.750Z,67.57
2019-05-15T04:22:35.488Z,67.88
2019-05-15T04:25:09.754Z,68.29
2019-05-15T04:27:41.565Z,68.52
2019-05-15T04:30:13.913Z,68.29
2019-05-15T04:32:48.579Z,68.39
2019-05-15T04:35:20.091Z,69.20
2019-05-15T04:37:51.787Z,69.74
2019-05-15T04:40:23.503Z,69.83
2019-05-15T04:42:55.204Z,69.57
2019-05-15T04:45:34.408Z,68.70
2019-05-15T04:48:03.829Z,69.00
2019-05-15T04:50:35.557Z,69.52
2019-05-15T04:53:10.770Z,69.26
2019-05-15T04:55:41.044Z,69.42
2019-05-15T04:58:12.831Z,69.51
2019-05-15T05:00:49.977Z,69.80
2019-05-15T05:03:21.978Z,69.96
2019-05-15T05:05:54.292Z,69.94
2019-05-15T05:08:28.697Z,69.53
2019-05-15T05:10:59.537Z,69.26
2019-05-15T05:13:31.259Z,69.88
2019-05-15T05:16:02.995Z,70.21
2019-05-15T05:18:34.717Z,70.23
2019-05-15T05:21:07.993Z,69.92
2019-05-15T05:23:39.984Z,70.09
2019-05-15T05:26:11.679Z,69.60
2019-05-15T05:28:43.457Z,69.60
2019-05-15T05:31:15.194Z,69.13
2019-05-15T05:33:50.128Z,68.86
2019-05-15T05:36:22.034Z,68.41
2019-05-15T05:38:53.750Z,68.49
2019-05-15T05:41:28.096Z,68.66
2019-05-15T05:44:00.320Z,68.58
2019-05-15T05:46:32.015Z,68.08
2019-05-15T05:49:05.031Z,68.09
2019-05-15T05:51:38.715Z,67.96
2019-05-15T05:54:10.183Z,67.63
2019-05-15T05:56:42.452Z,67.45
2019-05-15T05:59:14.177Z,67.36
2019-05-15T06:01:48.163Z,66.89
2019-05-15T06:04:19.330Z,63.54
2019-05-15T06:07:06.291Z,59.93
2019-05-15T06:09:27.817Z,58.27
2019-05-15T06:11:59.862Z,58.85
2019-05-15T06:14:31.574Z,58.87
2019-05-15T06:17:03.403Z,56.34
2019-05-15T06:19:35.123Z,54.89
2019-05-15T06:22:08.810Z,53.11
2019-05-15T06:24:42.393Z,50.50
2019-05-15T06:27:14.186Z,48.97
2019-05-15T06:29:45.914Z,49.25
2019-05-15T06:32:19.523Z,48.39
2019-05-15T06:34:51.238Z,45.98
2019-05-15T06:37:22.931Z,43.91
2019-05-15T06:39:54.674Z,43.35
2019-05-15T06:42:28.305Z,42.92
2019-05-15T06:45:00.253Z,42.60
2019-05-15T06:47:39.426Z,41.33
2019-05-15T06:50:50.106Z,40.53
2019-05-15T06:53:44.806Z,40.70
2019-05-15T06:56:18.783Z,39.12
2019-05-15T06:58:54.989Z,38.73
2019-05-15T07:01:29.432Z,38.17
2019-05-15T07:04:01.427Z,37.81
2019-05-15T07:06:35.006Z,37.43
2019-05-15T07:09:09.456Z,37.28
2019-05-15T07:11:40.816Z,36.52
2019-05-15T07:14:12.606Z,35.87
2019-05-15T07:16:44.375Z,35.93
2019-05-15T07:19:18.820Z,35.86
2019-05-15T07:21:50.747Z,40.13
2019-05-15T07:24:23.458Z,38.11
2019-05-15T07:26:59.122Z,37.53
2019-05-15T07:29:31.303Z,36.92
2019-05-15T07:32:04.969Z,35.27
2019-05-15T07:34:38.242Z,34.96
2019-05-15T07:37:10.061Z,34.05
2019-05-15T07:39:42.025Z,33.16
2019-05-15T07:42:13.754Z,33.38
2019-05-15T07:44:48.168Z,32.62
2019-05-15T07:47:20.316Z,32.26
2019-05-15T07:49:52.110Z,32.61
2019-05-15T07:52:23.846Z,32.35
2019-05-15T07:54:58.281Z,31.15
2019-05-15T07:57:30.505Z,30.60
2019-05-15T08:00:02.257Z,29.48
2019-05-15T08:02:34.678Z,28.88
2019-05-15T08:05:08.384Z,28.89
2019-05-15T08:07:42.737Z,28.75
2019-05-15T08:10:18.154Z,30.46
2019-05-15T08:12:49.612Z,30.20
2019-05-15T08:15:21.395Z,29.60
2019-05-15T08:18:08.174Z,29.46
2019-05-15T08:20:28.822Z,29.57
2019-05-15T08:23:00.023Z,29.14
2019-05-15T08:25:35.333Z,29.36
2019-05-15T08:28:05.199Z,29.12
2019-05-15T08:30:38.728Z,29.43
2019-05-15T08:33:10.465Z,28.45
2019-05-15T08:35:45.867Z,28.70
2019-05-15T08:38:17.974Z,27.86
2019-05-15T08:40:49.397Z,28.24
2019-05-15T08:43:23.703Z,27.01
2019-05-15T08:45:58.620Z,26.54
2019-05-15T08:48:32.796Z,30.41
2019-05-15T08:51:04.534Z,27.58
2019-05-15T08:53:38.005Z,26.77
2019-05-15T08:56:09.682Z,26.64
2019-05-15T08:58:41.423Z,28.75
2019-05-15T09:01:13.521Z,27.48
2019-05-15T09:03:49.002Z,28.00
2019-05-15T09:06:25.505Z,29.27
2019-05-15T09:08:58.510Z,27.19
2019-05-15T09:11:30.434Z,27.48
2019-05-15T09:14:02.585Z,26.47
2019-05-15T09:16:34.322Z,27.77
2019-05-15T09:19:08.260Z,26.46
2019-05-15T09:21:39.547Z,25.73
2019-05-15T09:24:11.728Z,24.33
2019-05-15T09:26:43.466Z,25.31
2019-05-15T09:29:18.297Z,26.33
2019-05-15T09:31:51.314Z,27.95
2019-05-15T09:34:23.487Z,25.28
2019-05-15T09:36:55.245Z,24.27
2019-05-15T09:39:28.670Z,27.42
2019-05-15T09:42:00.708Z,28.24
2019-05-15T09:44:32.607Z,30.41
2019-05-15T09:47:04.409Z,28.71
2019-05-15T09:49:36.177Z,28.39
2019-05-15T09:52:09.275Z,27.49
2019-05-15T09:54:41.672Z,27.41
2019-05-15T09:57:15.159Z,28.46
2019-05-15T09:59:48.796Z,24.69
2019-05-15T10:02:20.660Z,24.30
2019-05-15T10:05:05.483Z,22.33
2019-05-15T10:07:28.434Z,24.61
2019-05-15T10:10:02.373Z,22.67
2019-05-15T10:12:35.475Z,23.62
2019-05-15T10:15:11.117Z,21.42
2019-05-15T10:17:45.026Z,22.74
2019-05-15T10:20:19.632Z,26.55
2019-05-15T10:22:54.724Z,29.42
2019-05-15T10:25:28.169Z,30.19
2019-05-15T10:28:00.080Z,27.95
2019-05-15T10:30:34.049Z,30.94
2019-05-15T10:33:08.357Z,29.39
2019-05-15T10:35:39.509Z,29.68
2019-05-15T10:38:12.199Z,29.36
2019-05-15T10:41:00.034Z,30.17
2019-05-15T10:43:20.846Z,27.52
2019-05-15T10:45:54.784Z,29.38
2019-05-15T10:48:29.183Z,29.07
2019-05-15T10:51:06.268Z,29.77
2019-05-15T10:53:34.325Z,29.79
2019-05-15T10:56:08.730Z,29.28
2019-05-15T10:58:39.796Z,28.83
2019-05-15T11:01:11.655Z,29.16
2019-05-15T11:03:45.289Z,30.93
2019-05-15T11:06:18.291Z,31.89
2019-05-15T11:08:51.622Z,32.04
2019-05-15T11:11:23.671Z,32.22
2019-05-15T11:14:00.264Z,30.25
2019-05-15T11:16:29.969Z,31.68
2019-05-15T11:19:01.726Z,28.79
2019-05-15T11:21:33.525Z,28.84
2019-05-15T11:24:05.329Z,30.91
2019-05-15T11:26:40.015Z,31.31
2019-05-15T11:29:13.601Z,31.93
2019-05-15T11:31:45.348Z,30.80
2019-05-15T11:34:18.781Z,30.29
2019-05-15T11:36:50.764Z,30.79
2019-05-15T11:39:22.507Z,30.79
2019-05-15T11:41:54.329Z,29.80
2019-05-15T11:44:28.117Z,30.32
2019-05-15T11:46:59.510Z,31.91
2019-05-15T11:49:31.318Z,33.42
2019-05-15T11:52:03.044Z,33.37
2019-05-15T11:54:34.780Z,32.27
2019-05-15T11:57:08.628Z,32.32
2019-05-15T11:59:44.957Z,32.57
2019-05-15T12:02:14.799Z,33.74
2019-05-15T12:04:46.557Z,33.19
2019-05-15T12:07:18.370Z,34.18
2019-05-15T12:09:51.961Z,35.21
2019-05-15T12:12:23.708Z,34.45
2019-05-15T12:14:55.540Z,35.11
2019-05-15T12:17:28.448Z,35.40
2019-05-15T12:22:33.985Z,34.45
2019-05-15T12:27:41.558Z,34.54
2019-05-15T12:30:13.338Z,35.36
2019-05-15T12:35:20.805Z,35.27
2019-05-15T12:37:54.638Z,36.73
2019-05-15T13:01:12.739Z,37.48
2019-05-15T13:03:35.289Z,36.87
2019-05-15T13:06:08.093Z,36.35
2019-05-15T13:08:41.823Z,36.40
2019-05-15T13:11:15.114Z,38.17
2019-05-15T13:13:48.560Z,37.86
2019-05-15T13:16:20.592Z,37.44
2019-05-15T13:18:52.367Z,37.51
2019-05-15T13:21:24.098Z,37.76
2019-05-15T13:23:55.897Z,38.29
2019-05-15T13:26:29.517Z,37.29
2019-05-15T13:29:01.237Z,36.92
2019-05-15T13:31:33.053Z,37.84
2019-05-15T13:34:04.765Z,36.98
2019-05-15T13:36:38.997Z,36.63
2019-05-15T13:39:09.965Z,35.79
2019-05-15T13:41:41.756Z,38.93
2019-05-15T13:44:13.504Z,37.17
2019-05-15T13:46:45.217Z,37.35
2019-05-15T13:49:18.742Z,38.41
2019-05-15T13:51:50.462Z,38.41
2019-05-15T13:54:22.877Z,38.05
2019-05-15T13:56:54.663Z,38.43
2019-05-15T13:59:28.512Z,39.05
2019-05-15T14:02:00.171Z,40.00
2019-05-15T14:04:31.902Z,38.17
2019-05-15T14:07:03.653Z,38.15
2019-05-15T14:09:35.401Z,37.05
2019-05-15T14:12:12.426Z,36.51
2019-05-15T14:14:42.177Z,37.74
2019-05-15T14:17:13.981Z,36.94
2019-05-15T14:19:45.723Z,38.18
2019-05-15T14:22:17.445Z,38.91
2019-05-15T14:24:49.479Z,38.60
2019-05-15T14:27:21.229Z,38.57
2019-05-15T14:29:52.968Z,38.64
2019-05-15T14:32:35.515Z,37.31
2019-05-15T14:34:58.569Z,36.85
2019-05-15T14:37:31.158Z,37.20
2019-05-15T14:40:03.002Z,37.43
2019-05-15T14:42:34.745Z,37.18
2019-05-15T14:45:09.394Z,35.81
2019-05-15T14:47:41.118Z,36.06
2019-05-15T14:50:12.837Z,35.80
2019-05-15T14:52:48.144Z,35.90
2019-05-15T14:55:21.979Z,35.57
2019-05-15T14:57:53.691Z,34.63
2019-05-15T15:00:28.793Z,34.98
2019-05-15T15:02:59.108Z,33.63
2019-05-15T15:05:31.371Z,34.20
2019-05-15T15:08:17.331Z,33.93
2019-05-15T15:10:38.434Z,34.57
2019-05-15T15:13:14.791Z,34.66
2019-05-15T15:15:48.500Z,34.63
2019-05-15T15:18:19.950Z,34.83
2019-05-15T15:20:51.705Z,34.76
2019-05-15T15:23:23.463Z,36.07
2019-05-15T15:25:57.805Z,35.70
2019-05-15T15:28:29.865Z,36.95
2019-05-15T15:31:03.898Z,35.93
2019-05-15T15:33:39.002Z,37.10
2019-05-15T15:36:11.148Z,36.63
2019-05-15T15:38:44.208Z,36.14
2019-05-15T15:41:16.255Z,36.67
2019-05-15T15:43:48.607Z,37.81
2019-05-15T15:46:20.387Z,38.05
2019-05-15T15:48:52.232Z,37.88
2019-05-15T15:51:23.939Z,37.33
2019-05-15T15:53:57.930Z,36.96
2019-05-15T15:56:30.058Z,36.81
2019-05-15T15:59:01.946Z,36.90
2019-05-15T16:01:33.753Z,38.57
2019-05-15T16:04:05.500Z,39.74
2019-05-15T16:06:38.795Z,37.48
2019-05-15T16:09:10.882Z,37.14
2019-05-15T16:11:42.673Z,39.10
2019-05-15T16:14:14.402Z,39.13
2019-05-15T16:16:48.466Z,39.43
2019-05-15T16:19:19.796Z,40.03
2019-05-15T16:21:53.231Z,39.94
2019-05-15T16:24:25.353Z,40.42
2019-05-15T16:26:57.942Z,41.59
2019-05-15T16:29:32.300Z,41.60
2019-05-15T16:32:04.490Z,41.68
2019-05-15T16:34:39.104Z,41.86
2019-05-15T16:37:10.155Z,42.62
2019-05-15T16:39:41.979Z,42.67
2019-05-15T16:42:13.714Z,42.38
2019-05-15T16:44:45.819Z,42.37
2019-05-15T16:47:18.611Z,42.84
2019-05-15T16:49:50.677Z,43.78
2019-05-15T16:52:22.440Z,44.84
2019-05-15T16:54:54.171Z,44.91
2019-05-15T16:57:31.117Z,45.19
2019-05-15T17:00:04.077Z,45.96
2019-05-15T17:02:39.591Z,45.78
2019-05-15T17:05:12.563Z,45.90
2019-05-15T17:07:44.287Z,45.17
2019-05-15T17:10:16.414Z,45.22
2019-05-15T17:12:49.241Z,45.19
2019-05-15T17:15:21.412Z,45.59
2019-05-15T17:17:53.622Z,45.67
2019-05-15T17:20:25.708Z,45.79
2019-05-15T17:22:57.885Z,45.00
2019-05-15T17:25:29.983Z,45.69
2019-05-15T17:28:01.694Z,45.85
2019-05-15T17:30:34.558Z,45.86
2019-05-15T17:33:06.731Z,45.83
2019-05-15T17:35:38.574Z,46.32
2019-05-15T17:38:10.497Z,46.36
2019-05-15T17:40:43.708Z,46.79
2019-05-15T17:43:18.269Z,47.23
2019-05-15T17:45:51.019Z,48.24
2019-05-15T17:48:24.032Z,47.98
2019-05-15T17:50:58.422Z,48.40
2019-05-15T17:53:29.257Z,48.68
2019-05-15T17:56:02.411Z,48.24
2019-05-15T17:58:34.459Z,49.25
2019-05-15T18:01:08.701Z,49.41
2019-05-15T18:03:39.786Z,49.49
2019-05-15T18:06:14.804Z,49.33
2019-05-15T18:08:48.599Z,50.01
2019-05-15T18:11:22.885Z,50.01
2019-05-15T18:13:58.204Z,49.40
2019-05-15T18:16:32.040Z,49.73
2019-05-15T18:19:03.995Z,50.05
2019-05-15T18:21:38.133Z,50.81
2019-05-15T18:24:10.467Z,50.66
2019-05-15T18:26:42.308Z,51.12
2019-05-15T18:29:14.102Z,51.20
2019-05-15T18:31:48.029Z,51.51
2019-05-15T18:34:19.771Z,51.79
2019-05-15T18:36:53.480Z,52.15
2019-05-15T18:39:25.292Z,52.30
2019-05-15T18:41:57.801Z,52.43
2019-05-15T18:44:31.547Z,52.84
2019-05-15T18:47:05.658Z,53.87
2019-05-15T18:49:38.082Z,53.86
2019-05-15T18:52:13.999Z,54.57
2019-05-15T18:54:48.053Z,53.80
2019-05-15T18:57:20.187Z,54.30
2019-05-15T18:59:52.294Z,54.44
2019-05-15T19:02:24.456Z,54.37
2019-05-15T19:04:58.540Z,55.02
2019-05-15T19:07:29.791Z,55.35
2019-05-15T19:10:01.604Z,56.07
2019-05-15T19:12:35.076Z,55.96
2019-05-15T19:15:09.318Z,55.93
2019-05-15T19:17:40.624Z,56.82
2019-05-15T19:20:12.774Z,56.74
2019-05-15T19:22:44.531Z,57.16
2019-05-15T19:25:17.924Z,57.40
2019-05-15T19:27:50.235Z,57.69
2019-05-15T19:30:22.061Z,57.99
2019-05-15T19:32:55.563Z,57.92
2019-05-15T19:35:28.305Z,58.38
2019-05-15T19:38:00.171Z,59.14
2019-05-15T19:40:32.056Z,58.86
2019-05-15T19:43:04.192Z,59.01
2019-05-15T19:45:45.196Z,58.99
2019-05-15T19:48:19.946Z,59.86
2019-05-15T19:50:50.833Z,59.76
2019-05-15T19:53:22.970Z,60.29
2019-05-15T19:55:58.024Z,60.89
2019-05-15T19:58:30.246Z,61.13
2019-05-15T20:01:02.060Z,61.20
2019-05-15T20:03:45.402Z,61.11
2019-05-15T20:06:08.377Z,61.57
2019-05-15T20:08:40.371Z,61.47
2019-05-15T20:11:13.767Z,61.73
2019-05-15T20:13:50.930Z,61.74
2019-05-15T20:16:28.477Z,61.85
2019-05-15T20:19:00.669Z,62.40
2019-05-15T20:21:32.865Z,62.34
2019-05-15T20:24:04.823Z,63.09
2019-05-15T20:26:38.048Z,62.98
2019-05-15T20:29:10.273Z,63.68
2019-05-15T20:31:43.947Z,63.47
2019-05-15T20:34:15.730Z,63.94
2019-05-15T20:36:48.831Z,64.19
2019-05-15T20:39:21.138Z,64.68
2019-05-15T20:41:53.199Z,64.40
2019-05-15T20:44:26.805Z,64.73
2019-05-15T20:46:59.159Z,64.96
2019-05-15T20:49:32.452Z,64.96
2019-05-15T20:52:04.267Z,64.90
2019-05-15T20:54:38.623Z,65.08
2019-05-15T20:57:09.855Z,65.11
2019-05-15T20:59:41.966Z,65.88
2019-05-15T21:02:14.029Z,65.49
2019-05-15T21:04:47.596Z,65.02
2019-05-15T21:07:34.437Z,64.93
2019-05-15T21:09:53.850Z,65.04
2019-05-15T21:12:29.385Z,66.26
2019-05-15T21:15:00.661Z,65.65
2019-05-15T21:17:33.958Z,65.38
2019-05-15T21:20:06.029Z,65.20
2019-05-15T21:22:40.430Z,65.57
2019-05-15T21:25:12.287Z,65.93
2019-05-15T21:27:44.278Z,65.80
2019-05-15T21:30:18.992Z,65.77
2019-05-15T21:32:50.629Z,65.80
2019-05-15T21:35:22.398Z,65.92
2019-05-15T21:37:54.150Z,66.14
2019-05-15T21:40:27.934Z,66.16
2019-05-15T21:42:59.375Z,66.55
2019-05-15T21:45:35.254Z,66.18
2019-05-15T21:48:09.022Z,65.83
2019-05-15T21:50:41.004Z,66.10
2019-05-15T21:53:12.800Z,66.12
2019-05-15T21:55:44.569Z,65.96
2019-05-15T21:58:18.606Z,66.40
2019-05-15T22:00:52.696Z,67.17
2019-05-15T22:03:25.662Z,67.21
2019-05-15T22:05:59.315Z,67.41
2019-05-15T22:08:31.075Z,66.93
2019-05-15T22:11:03.825Z,67.20
2019-05-15T22:14:22.765Z,66.75
2019-05-15T22:17:55.199Z,66.97
2019-05-15T22:20:30.572Z,66.72
2019-05-15T22:23:08.206Z,66.58
2019-05-15T22:26:00.350Z,66.48
2019-05-15T22:28:33.720Z,66.23
2019-05-15T22:35:05.775Z,65.95
2019-05-15T22:37:23.749Z,65.76
2019-05-15T22:40:00.888Z,65.85
2019-05-15T22:42:34.974Z,65.67
2019-05-15T22:45:09.071Z,65.47
2019-05-15T22:47:41.129Z,65.44
2019-05-15T22:50:14.877Z,65.40
2019-05-15T22:52:49.375Z,65.46
2019-05-15T22:55:21.559Z,64.87
2019-05-15T22:57:53.936Z,64.88
2019-05-15T23:00:28.651Z,64.62
2019-05-15T23:02:59.388Z,64.61
2019-05-15T23:05:31.939Z,64.71
2019-05-15T23:08:05.623Z,65.57
2019-05-15T23:10:39.006Z,65.21
2019-05-15T23:13:11.112Z,64.94
2019-05-15T23:15:42.868Z,64.92
2019-05-15T23:18:17.907Z,64.52
2019-05-15T23:20:51.377Z,65.15
2019-05-15T23:23:25.282Z,64.97
2019-05-15T23:25:57.798Z,64.98
2019-05-15T23:28:29.866Z,65.09
2019-05-15T23:31:02.898Z,64.59
2019-05-15T23:33:34.717Z,64.04
2019-05-15T23:36:06.523Z,64.56
2019-05-15T23:38:38.555Z,64.36
2019-05-15T23:41:11.987Z,64.26
2019-05-15T23:43:45.502Z,64.46
2019-05-15T23:46:28.805Z,64.48
2019-05-15T23:49:00.648Z,64.81
2019-05-15T23:51:33.278Z,65.91
2019-05-15T23:54:08.303Z,65.27
2019-05-15T23:56:41.685Z,65.85
2019-05-15T23:59:13.494Z,65.53
